createdAt,value
2016-12-04T00:00:05.197Z,23.61
2016-12-04T00:05:05.023Z,23.52
2016-12-04T00:10:04.763Z,23.43
2016-12-04T00:15:04.500Z,23.43
2016-12-04T00:20:04.680Z,23.52
2016-12-04T00:25:04.655Z,23.61
2016-12-04T00:30:04.792Z,23.69
2016-12-04T00:35:04.761Z,23.98
2016-12-04T00:40:04.447Z,23.79
2016-12-04T00:45:05.122Z,23.69
2016-12-04T00:50:05.158Z,23.69
2016-12-04T00:55:04.741Z,23.69
2016-12-04T01:00:04.601Z,23.69
2016-12-04T01:05:04.167Z,23.69
2016-12-04T01:10:04.937Z,23.6
2016-12-04T01:15:05.237Z,23.5
2016-12-04T01:20:04.859Z,23.5
2016-12-04T01:25:04.769Z,23.41
2016-12-04T01:30:05.369Z,23.5
2016-12-04T01:35:04.924Z,23.5
2016-12-04T01:40:04.420Z,23.6
2016-12-04T01:45:04.961Z,23.6
2016-12-04T01:50:04.342Z,23.5
2016-12-04T01:55:04.862Z,23.6
2016-12-04T02:00:04.489Z,23.5
2016-12-04T02:05:04.512Z,23.69
2016-12-04T02:10:04.956Z,23.6
2016-12-04T02:15:04.563Z,23.6
2016-12-04T02:20:05.220Z,23.69
2016-12-04T02:25:04.867Z,23.6
2016-12-04T02:30:04.239Z,23.6
2016-12-04T02:35:05.151Z,23.5
2016-12-04T02:40:04.645Z,23.6
2016-12-04T02:45:04.885Z,23.41
2016-12-04T02:50:04.731Z,23.5
2016-12-04T02:55:04.515Z,23.41
2016-12-04T03:00:05.225Z,23.5
2016-12-04T03:05:05.913Z,23.41
2016-12-04T03:10:04.837Z,23.32
2016-12-04T03:15:05.169Z,23.6
2016-12-04T03:20:04.549Z,23.41
2016-12-04T03:25:04.990Z,23.32
2016-12-04T03:30:05.086Z,23.13
2016-12-04T03:35:05.275Z,23.03
2016-12-04T03:40:04.272Z,22.85
2016-12-04T03:45:04.381Z,22.66
2016-12-04T03:50:04.855Z,22.66
2016-12-04T03:55:04.353Z,22.56
2016-12-04T04:00:05.604Z,22.47
2016-12-04T04:05:04.864Z,22.47
2016-12-04T04:10:04.479Z,22.47
2016-12-04T04:15:04.578Z,22.56
2016-12-04T04:20:05.121Z,22.75
2016-12-04T04:25:04.954Z,22.75
2016-12-04T04:30:05.233Z,22.66
2016-12-04T04:35:05.021Z,22.38
2016-12-04T04:40:04.997Z,22.28
2016-12-04T04:45:04.904Z,22.19
2016-12-04T04:50:04.725Z,22.28
2016-12-04T04:55:04.502Z,22.38
2016-12-04T05:00:04.485Z,22.38
2016-12-04T05:05:05.091Z,22.38
2016-12-04T05:10:05.309Z,22.38
2016-12-04T05:15:04.249Z,22.38
2016-12-04T05:20:04.641Z,22.38
2016-12-04T05:25:04.766Z,22.38
2016-12-04T05:30:05.038Z,22.36
2016-12-04T05:35:04.399Z,22.55
2016-12-04T05:40:04.788Z,22.64
2016-12-04T05:45:04.564Z,22.64
2016-12-04T05:50:05.212Z,22.64
2016-12-04T05:55:04.652Z,22.64
2016-12-04T06:00:04.753Z,22.74
2016-12-04T06:05:04.738Z,22.74
2016-12-04T06:10:04.917Z,22.83
2016-12-04T06:15:04.430Z,22.93
2016-12-04T06:20:04.824Z,22.93
2016-12-04T06:25:04.982Z,22.93
2016-12-04T06:30:05.032Z,23.02
2016-12-04T06:35:04.481Z,23.02
2016-12-04T06:40:05.372Z,23.02
2016-12-04T06:45:04.541Z,23.02
2016-12-04T06:50:04.668Z,23.11
2016-12-04T06:55:04.804Z,23.11
2016-12-04T07:00:04.453Z,23.11
2016-12-04T07:05:04.750Z,23.02
2016-12-04T07:10:05.161Z,23.02
2016-12-04T07:15:05.080Z,23.02
2016-12-04T07:20:04.897Z,23.02
2016-12-04T07:25:05.124Z,23.02
2016-12-04T07:30:04.445Z,22.93
2016-12-04T07:35:05.149Z,22.83
2016-12-04T07:40:04.657Z,22.83
2016-12-04T07:45:05.128Z,22.55
2016-12-04T07:50:04.910Z,22.27
2016-12-04T07:55:04.915Z,21.81
2016-12-04T08:00:05.171Z,19.92
2016-12-04T08:05:04.956Z,17.94
2016-12-04T08:10:04.182Z,16.16
2016-12-04T08:15:05.426Z,16.93
2016-12-04T08:20:04.320Z,21.37
2016-12-04T08:25:04.632Z,29.8
2016-12-04T08:30:04.388Z,40.51
2016-12-04T08:35:04.532Z,56.91
2016-12-04T08:40:05.138Z,71.06
2016-12-04T08:45:04.888Z,81.2
2016-12-04T08:50:05.148Z,91
2016-12-04T08:55:04.672Z,99.77
2016-12-04T09:00:05.404Z,99.99
2016-12-04T09:05:04.229Z,99.99
2016-12-04T09:10:04.716Z,99.99
2016-12-04T09:15:05.361Z,99.99
2016-12-04T09:20:04.668Z,99.99
2016-12-04T09:25:04.748Z,99.99
2016-12-04T09:30:04.562Z,99.99
2016-12-04T09:35:05.030Z,99.99
2016-12-04T09:40:04.996Z,99.99
2016-12-04T09:45:04.729Z,99.99
2016-12-04T09:50:04.935Z,99.99
2016-12-04T09:55:05.304Z,99.99
2016-12-04T10:00:04.711Z,99.99
2016-12-04T10:05:04.320Z,99.99
2016-12-04T10:10:04.805Z,99.27
2016-12-04T10:15:04.242Z,98.8
2016-12-04T10:20:04.551Z,92.32
2016-12-04T10:25:05.106Z,91.12
2016-12-04T10:30:04.750Z,89.64
2016-12-04T10:35:04.573Z,87.96
2016-12-04T10:40:04.849Z,82.08
2016-12-04T10:45:04.781Z,80.07
2016-12-04T10:50:04.906Z,79.5
2016-12-04T10:55:04.672Z,78.11
2016-12-04T11:00:04.371Z,76.71
2016-12-04T11:05:05.118Z,74.93
2016-12-04T11:10:04.448Z,74.4
2016-12-04T11:15:04.696Z,70.7
2016-12-04T11:20:04.569Z,69.35
2016-12-04T11:25:04.167Z,68.78
2016-12-04T11:30:05.315Z,68.49
2016-12-04T11:35:05.145Z,67.72
2016-12-04T11:40:05.302Z,66.77
2016-12-04T11:45:05.071Z,64.85
2016-12-04T11:50:04.958Z,64.4
2016-12-04T11:55:04.675Z,64.47
2016-12-04T12:00:05.215Z,63.13
2016-12-04T12:05:05.295Z,63.03
2016-12-04T12:10:05.191Z,62.84
2016-12-04T12:15:04.305Z,62.36
2016-12-04T12:20:04.776Z,61.69
2016-12-04T12:25:04.963Z,61.6
2016-12-04T12:30:05.263Z,61.6
2016-12-04T12:35:04.423Z,61.98
2016-12-04T12:40:04.350Z,62.3
2016-12-04T12:45:04.551Z,61.43
2016-12-04T12:50:05.173Z,61.43
2016-12-04T12:55:04.181Z,62.1
2016-12-04T13:00:04.813Z,62.2
2016-12-04T13:05:05.110Z,62.01
2016-12-04T13:10:04.274Z,61.53
2016-12-04T13:15:05.095Z,61.6
2016-12-04T13:20:04.788Z,61.53
2016-12-04T13:25:04.669Z,61.15
2016-12-04T13:30:05.246Z,60.86
2016-12-04T13:35:05.377Z,60.35
2016-12-04T13:40:04.449Z,61.4
2016-12-04T13:45:04.892Z,61.11
2016-12-04T13:50:04.855Z,61.47
2016-12-04T13:55:04.844Z,61.72
2016-12-04T14:00:04.891Z,62.2
2016-12-04T14:05:04.395Z,62.27
2016-12-04T14:10:04.630Z,61.79
2016-12-04T14:15:05.065Z,61.95
2016-12-04T14:20:05.242Z,62.68
2016-12-04T14:25:05.219Z,63.51
2016-12-04T14:30:05.281Z,64.53
2016-12-04T14:35:04.841Z,65.01
2016-12-04T14:40:05.156Z,65.7
2016-12-04T14:45:05.016Z,66.38
2016-12-04T14:50:05.015Z,66.91
2016-12-04T14:55:04.466Z,67.55
2016-12-04T15:00:04.517Z,68.75
2016-12-04T15:05:05.225Z,69.48
2016-12-04T15:10:04.768Z,70.58
2016-12-04T15:15:05.536Z,71.63
2016-12-04T15:20:04.784Z,72.64
2016-12-04T15:25:05.114Z,74.56
2016-12-04T15:30:04.696Z,76.04
2016-12-04T15:35:05.171Z,77.09
2016-12-04T15:40:04.581Z,78.19
2016-12-04T15:45:04.736Z,79.76
2016-12-04T15:50:05.231Z,80.9
2016-12-04T15:55:04.911Z,82.18
2016-12-04T16:00:04.461Z,83.51
2016-12-04T16:05:04.953Z,86.12
2016-12-04T16:10:04.880Z,88.02
2016-12-04T16:15:04.444Z,89.72
2016-12-04T16:20:04.754Z,91.9
2016-12-04T16:25:04.502Z,93.65
2016-12-04T16:30:04.350Z,96.88
2016-12-04T16:35:04.695Z,99.05
2016-12-04T16:40:04.473Z,99.99
2016-12-04T16:45:04.868Z,99.99
2016-12-04T16:50:04.274Z,99.99
2016-12-04T16:55:05.108Z,99.99
2016-12-04T17:00:05.271Z,99.99
2016-12-04T17:05:04.505Z,99.99
2016-12-04T17:10:04.183Z,99.99
2016-12-04T17:15:05.345Z,99.99
2016-12-04T17:20:04.344Z,99.99
2016-12-04T17:25:04.650Z,99.99
2016-12-04T17:30:05.128Z,99.99
2016-12-04T17:35:04.791Z,99.99
2016-12-04T17:40:04.741Z,99.99
2016-12-04T17:45:05.118Z,99.99
2016-12-04T17:50:04.415Z,99.99
2016-12-04T17:55:04.596Z,99.99
2016-12-04T18:00:04.865Z,99.99
2016-12-04T18:05:05.365Z,99.99
2016-12-04T18:10:05.078Z,99.99
2016-12-04T18:15:04.599Z,99.99
2016-12-04T18:20:04.596Z,99.99
2016-12-04T18:25:04.997Z,99.99
2016-12-04T18:30:04.186Z,99.99
2016-12-04T18:35:05.221Z,99.99
2016-12-04T18:40:04.661Z,99.99
2016-12-04T18:45:04.845Z,99.99
2016-12-04T18:50:05.157Z,99.99
2016-12-04T18:55:04.909Z,99.99
2016-12-04T19:00:04.560Z,99.99
2016-12-04T19:05:05.017Z,99.99
2016-12-04T19:10:04.879Z,99.99
2016-12-04T19:15:04.695Z,99.99
2016-12-04T19:20:04.977Z,99.99
2016-12-04T19:25:04.283Z,99.99
2016-12-04T19:30:04.433Z,99.99
2016-12-04T19:35:04.457Z,99.99
2016-12-04T19:40:05.006Z,99.99
2016-12-04T19:45:04.416Z,99.99
2016-12-04T19:50:05.227Z,99.99
2016-12-04T19:55:05.089Z,99.99
2016-12-04T20:00:04.203Z,99.99
2016-12-04T20:05:04.807Z,99.99
2016-12-04T20:10:04.624Z,99.99
2016-12-04T20:15:05.293Z,99.99
2016-12-04T20:20:04.463Z,99.99
2016-12-04T20:25:04.653Z,99.99
2016-12-04T20:30:04.153Z,99.99
2016-12-04T20:35:05.129Z,99.99
2016-12-04T20:40:04.497Z,99.99
2016-12-04T20:45:04.382Z,99.99
2016-12-04T20:50:05.194Z,99.99
2016-12-04T20:55:04.446Z,99.99
2016-12-04T21:00:04.808Z,99.99
2016-12-04T21:05:04.203Z,99.99
2016-12-04T21:10:04.944Z,99.99
2016-12-04T21:15:04.529Z,99.99
2016-12-04T21:20:05.087Z,99.99
2016-12-04T21:25:04.562Z,99.99
2016-12-04T21:30:05.114Z,99.99
2016-12-04T21:35:04.213Z,99.99
2016-12-04T21:40:05.275Z,99.99
2016-12-04T21:45:05.322Z,99.75
2016-12-04T21:50:04.412Z,97.86
2016-12-04T21:55:04.859Z,97.48
2016-12-04T22:00:05.099Z,97.1
2016-12-04T22:05:04.938Z,97.1
2016-12-04T22:10:04.534Z,96.16
2016-12-04T22:15:04.864Z,96.11
2016-12-04T22:20:04.899Z,95.73
2016-12-04T22:25:04.231Z,95.26
2016-12-04T22:30:05.001Z,95.17
2016-12-04T22:35:04.884Z,93.47
2016-12-04T22:40:04.344Z,91.96
2016-12-04T22:45:04.392Z,92.52
2016-12-04T22:50:04.510Z,92.9
2016-12-04T22:55:04.819Z,92.14
2016-12-04T23:00:04.664Z,91.3
2016-12-04T23:05:04.709Z,90.35
2016-12-04T23:10:05.020Z,89.69
2016-12-04T23:15:04.531Z,89.4
2016-12-04T23:20:04.356Z,88.93
2016-12-04T23:25:04.605Z,89.12
2016-12-04T23:30:04.764Z,89.22
2016-12-04T23:35:05.061Z,89.22
2016-12-04T23:40:04.728Z,89.59
2016-12-04T23:45:05.082Z,89.69
2016-12-04T23:50:05.319Z,89.4
2016-12-04T23:55:04.920Z,89.5
